Flight Track Log - Related Links

Times and Time Zones

All times are in EDT time to prevent confusion due to time zone crossing. See the CSN6811 flight status page for this flight to view local times or setup timezone preferences in your user account.

Time Position Orientation Groundspeed Altitude Reporting Facility
EDT Latitude Longitude Course Direction KTS MPH feet Rate Location/Type
Mon 08:17:00 PM 43.6640 86.6965 247° West  Level Estimated
Mon 08:18:00 PM 43.6230 86.5675 246° West  Level Estimated
Mon 08:19:00 PM 43.5818 86.4387 246° West  Level Estimated
Mon 08:20:00 PM 43.5405 86.3100 246° West  Level Estimated
Mon 08:21:00 PM 43.4991 86.1815 246° West  Level Estimated
Mon 08:22:00 PM 43.4575 86.0532 246° West  Level Estimated
Mon 08:23:00 PM 43.4157 85.9251 246° West  Level Estimated
Mon 08:24:00 PM 43.3738 85.7971 246° West  Level Estimated
Mon 08:25:00 PM 43.3318 85.6694 246° West  Level Estimated
Mon 08:26:00 PM 43.2868 85.5331 246° West  Level Estimated
Mon 08:27:00 PM 43.2415 85.3970 246° West  Level Estimated
Mon 08:28:00 PM 43.1962 85.2611 245° Southwest  Level Estimated
Mon 08:29:00 PM 43.1506 85.1254 245° Southwest  Level Estimated
Mon 08:30:00 PM 43.1049 84.9900 245° Southwest  Level Estimated
Mon 08:31:00 PM 43.0591 84.8547 245° Southwest  Level Estimated
Mon 08:32:00 PM 43.0131 84.7196 245° Southwest  Level Estimated
Mon 08:33:00 PM 42.9669 84.5847 245° Southwest  Level Estimated
Mon 08:34:00 PM 42.9206 84.4501 245° Southwest  Level Estimated
Mon 08:35:00 PM 42.8741 84.3156 245° Southwest  Level Estimated
Mon 08:36:00 PM 42.8274 84.1813 245° Southwest  Level Estimated
Mon 08:37:00 PM 42.7806 84.0473 245° Southwest  Level Estimated
Mon 08:38:00 PM 42.7337 83.9134 245° Southwest  Level Estimated
Mon 08:39:00 PM 42.6866 83.7798 244° Southwest  Level Estimated
Mon 08:40:00 PM 42.6393 83.6463 244° Southwest  Level Estimated
Mon 08:41:00 PM 42.5919 83.5130 244° Southwest  Level Estimated
Mon 08:42:00 PM 42.5443 83.3800 244° Southwest  Level Estimated
Mon 08:43:00 PM 42.4966 83.2472 244° Southwest  Level Estimated
Mon 08:44:00 PM 42.4487 83.1145 244° Southwest  Level Estimated
Mon 08:45:00 PM 42.4006 82.9821 244° Southwest  Level Estimated
Mon 08:46:00 PM 42.3524 82.8499 244° Southwest  Level Estimated
Mon 08:47:00 PM 42.3041 82.7178 244° Southwest  Level Estimated
Mon 08:48:00 PM 42.2556 82.5860 244° Southwest  Level Estimated
Mon 08:49:00 PM 42.2070 82.4544 244° Southwest  Level Estimated
Mon 08:50:00 PM 42.1582 82.3229 243° Southwest  Level Estimated
Mon 08:51:00 PM 42.1092 82.1917 243° Southwest  Level Estimated
Mon 08:52:00 PM 42.0601 82.0607 243° Southwest  Level Estimated
Mon 08:53:00 PM 42.0109 81.9299 243° Southwest  Level Estimated
Mon 08:54:00 PM 41.9615 81.7993 243° Southwest  Level Estimated
Mon 08:55:00 PM 41.9120 81.6689 243° Southwest  Level Estimated
Mon 08:56:00 PM 41.8623 81.5387 243° Southwest  Level Estimated
Mon 08:57:00 PM 41.8124 81.4087 243° Southwest  Level Estimated
Mon 08:58:00 PM 41.7625 81.2789 243° Southwest  Level Estimated
Mon 08:59:00 PM 41.7123 81.1493 243° Southwest  Level Estimated
Mon 09:00:00 PM 41.6621 81.0199 243° Southwest  Level Estimated
Mon 09:01:00 PM 41.6117 80.8907 242° Southwest  Level Estimated
Mon 09:02:00 PM 41.5611 80.7617 242° Southwest  Level Estimated
Mon 09:03:00 PM 41.5104 80.6329 242° Southwest  Level Estimated
Mon 09:04:00 PM 41.4595 80.5043 242° Southwest  Level Estimated
Mon 09:05:00 PM 41.4086 80.3759 242° Southwest  Level Estimated
Mon 09:06:00 PM 41.3574 80.2477 242° Southwest  Level Estimated
Mon 09:07:00 PM 41.3062 80.1197 242° Southwest  Level Estimated
Mon 09:08:00 PM 41.2547 79.9920 242° Southwest  Level Estimated
Mon 09:09:00 PM 41.2032 79.8644 242° Southwest  Level Estimated
Mon 09:10:00 PM 41.1515 79.7370 242° Southwest  Level Estimated
Mon 09:11:00 PM 41.0997 79.6098 242° Southwest  Level Estimated
Mon 09:12:00 PM 41.0477 79.4828 242° Southwest  Level Estimated
Mon 09:13:00 PM 40.9956 79.3560 241° Southwest  Level Estimated
Mon 09:14:00 PM 40.9433 79.2295 241° Southwest  Level Estimated
Mon 09:15:00 PM 40.8909 79.1031 241° Southwest  Level Estimated
Mon 09:16:00 PM 40.8384 78.9769 241° Southwest  Level Estimated
Mon 09:17:00 PM 40.7857 78.8509 241° Southwest  Level Estimated
Mon 09:18:00 PM 40.7329 78.7252 241° Southwest  Level Estimated
Mon 09:19:00 PM 40.6800 78.5996 241° Southwest  Level Estimated
Mon 09:20:00 PM 40.6269 78.4742 241° Southwest  Level Estimated
Mon 09:21:00 PM 40.5737 78.3490 241° Southwest  Level Estimated
Mon 09:22:00 PM 40.5203 78.2241 241° Southwest  Level Estimated
Mon 09:23:00 PM 40.4669 78.0993 241° Southwest  Level Estimated
Mon 09:24:00 PM 40.4132 77.9747 241° Southwest  Level Estimated
Mon 09:25:00 PM 40.3595 77.8503 240° Southwest  Level Estimated
Mon 09:26:00 PM 40.3056 77.7261 240° Southwest  Level Estimated
Mon 09:27:00 PM 40.2516 77.6021 240° Southwest  Level Estimated
Mon 09:28:00 PM 40.1975 77.4784 240° Southwest  Level Estimated
Mon 09:29:00 PM 40.1432 77.3548 240° Southwest  Level Estimated
Mon 09:30:00 PM 40.0888 77.2314 240° Southwest  Level Estimated
Mon 09:31:00 PM 40.0342 77.1082 240° Southwest  Level Estimated
Mon 09:32:00 PM 39.9796 76.9852 240° Southwest  Level Estimated
Mon 09:33:00 PM 39.9248 76.8624 240° Southwest  Level Estimated
Mon 09:34:00 PM 39.8698 76.7398 240° Southwest  Level Estimated
Mon 09:35:00 PM 39.8148 76.6174 240° Southwest  Level Estimated
Mon 09:36:00 PM 39.7596 76.4952 240° Southwest  Level Estimated
Mon 09:37:00 PM 39.7043 76.3731 240° Southwest  Level Estimated
Mon 09:38:00 PM 39.6488 76.2513 239° Southwest  Level Estimated
Mon 09:39:00 PM 39.5933 76.1297 239° Southwest  Level Estimated
Mon 09:40:00 PM 39.5432 76.0206 239° Southwest  Level Estimated
Mon 09:41:00 PM 39.5432 76.0206 North  Level Estimated
Mon 09:42:00 PM 39.5432 76.0206 North  Level Estimated
Mon 09:43:00 PM 39.5432 76.0206 North  Level Estimated
Mon 09:44:00 PM 39.5432 76.0206 North  Level Estimated
Mon 09:45:00 PM 39.5432 76.0206 North  Level Estimated
Mon 09:46:00 PM 39.5432 76.0206 North  Level Estimated
Mon 09:47:00 PM 39.5432 76.0206 North  Level Estimated
Mon 09:48:00 PM 39.5432 76.0206 North  Level Estimated
Mon 09:49:00 PM 39.5432 76.0206 North  Level Estimated
Mon 09:50:00 PM 39.5432 76.0206 North  Level Estimated
Mon 09:51:00 PM 39.5432 76.0206 North  Level Estimated
Mon 09:52:00 PM 39.5432 76.0206 North  Level Estimated
Mon 09:53:00 PM 39.5432 76.0206 North  Level Estimated

Login

Don't have an account? Register now (free) for customized features, flight alerts, and more!